sensor_id;sensor_type;location;lat;lon;timestamp;P1;durP1;ratioP1;P2;durP2;ratioP2
71166;SDS011;58864;45.928;20.078;2023-11-19T00:00:47;9.88;;;3.17;;
71166;SDS011;58864;45.928;20.078;2023-11-19T00:03:11;10.07;;;3.13;;
71166;SDS011;58864;45.928;20.078;2023-11-19T00:05:37;7.65;;;2.95;;
71166;SDS011;58864;45.928;20.078;2023-11-19T00:08:01;8.43;;;2.80;;
71166;SDS011;58864;45.928;20.078;2023-11-19T00:10:26;6.70;;;2.33;;
71166;SDS011;58864;45.928;20.078;2023-11-19T00:12:50;8.02;;;2.80;;
71166;SDS011;58864;45.928;20.078;2023-11-19T00:15:15;8.43;;;3.20;;
71166;SDS011;58864;45.928;20.078;2023-11-19T00:17:42;8.15;;;2.65;;
71166;SDS011;58864;45.928;20.078;2023-11-19T00:20:08;8.77;;;4.03;;
71166;SDS011;58864;45.928;20.078;2023-11-19T00:22:33;12.52;;;5.20;;
71166;SDS011;58864;45.928;20.078;2023-11-19T00:24:58;13.20;;;4.93;;
71166;SDS011;58864;45.928;20.078;2023-11-19T00:27:23;12.30;;;4.78;;
71166;SDS011;58864;45.928;20.078;2023-11-19T00:29:48;12.82;;;5.18;;
71166;SDS011;58864;45.928;20.078;2023-11-19T00:32:12;13.67;;;4.73;;
71166;SDS011;58864;45.928;20.078;2023-11-19T00:34:37;14.60;;;5.10;;
71166;SDS011;58864;45.928;20.078;2023-11-19T00:37:01;13.80;;;5.70;;
71166;SDS011;58864;45.928;20.078;2023-11-19T00:39:27;11.63;;;4.50;;
71166;SDS011;58864;45.928;20.078;2023-11-19T00:41:52;13.93;;;4.38;;
71166;SDS011;58864;45.928;20.078;2023-11-19T00:44:16;10.73;;;3.90;;
71166;SDS011;58864;45.928;20.078;2023-11-19T00:46:41;9.53;;;3.33;;
71166;SDS011;58864;45.928;20.078;2023-11-19T00:49:05;10.17;;;3.43;;
71166;SDS011;58864;45.928;20.078;2023-11-19T00:51:29;10.33;;;3.30;;
71166;SDS011;58864;45.928;20.078;2023-11-19T00:53:55;8.57;;;3.07;;
71166;SDS011;58864;45.928;20.078;2023-11-19T00:56:19;8.23;;;2.83;;
71166;SDS011;58864;45.928;20.078;2023-11-19T00:58:44;8.93;;;3.13;;
71166;SDS011;58864;45.928;20.078;2023-11-19T01:01:09;10.07;;;3.78;;
71166;SDS011;58864;45.928;20.078;2023-11-19T01:03:33;10.37;;;3.60;;
71166;SDS011;58864;45.928;20.078;2023-11-19T01:05:58;9.73;;;3.60;;
71166;SDS011;58864;45.928;20.078;2023-11-19T01:08:23;10.20;;;3.72;;
71166;SDS011;58864;45.928;20.078;2023-11-19T01:10:48;11.30;;;3.97;;
71166;SDS011;58864;45.928;20.078;2023-11-19T01:13:13;16.25;;;5.55;;
71166;SDS011;58864;45.928;20.078;2023-11-19T01:15:37;19.43;;;6.70;;
71166;SDS011;58864;45.928;20.078;2023-11-19T01:18:02;21.70;;;7.93;;
71166;SDS011;58864;45.928;20.078;2023-11-19T01:20:28;19.15;;;7.90;;
71166;SDS011;58864;45.928;20.078;2023-11-19T01:22:53;18.57;;;7.07;;
71166;SDS011;58864;45.928;20.078;2023-11-19T01:25:17;19.13;;;6.30;;
71166;SDS011;58864;45.928;20.078;2023-11-19T01:27:42;16.77;;;5.97;;
71166;SDS011;58864;45.928;20.078;2023-11-19T01:30:06;12.73;;;4.60;;
71166;SDS011;58864;45.928;20.078;2023-11-19T01:32:36;12.50;;;4.60;;
71166;SDS011;58864;45.928;20.078;2023-11-19T01:35:01;11.27;;;4.07;;
71166;SDS011;58864;45.928;20.078;2023-11-19T01:37:25;15.00;;;4.80;;
71166;SDS011;58864;45.928;20.078;2023-11-19T01:39:50;12.13;;;4.90;;
71166;SDS011;58864;45.928;20.078;2023-11-19T01:42:14;17.13;;;5.47;;
71166;SDS011;58864;45.928;20.078;2023-11-19T01:44:39;24.17;;;7.97;;
71166;SDS011;58864;45.928;20.078;2023-11-19T01:47:04;18.37;;;6.03;;
71166;SDS011;58864;45.928;20.078;2023-11-19T01:49:28;17.83;;;5.63;;
71166;SDS011;58864;45.928;20.078;2023-11-19T01:51:53;18.25;;;5.22;;
71166;SDS011;58864;45.928;20.078;2023-11-19T01:54:17;22.97;;;7.23;;
71166;SDS011;58864;45.928;20.078;2023-11-19T01:56:42;19.70;;;7.23;;
71166;SDS011;58864;45.928;20.078;2023-11-19T01:59:07;23.45;;;8.32;;
71166;SDS011;58864;45.928;20.078;2023-11-19T02:01:33;21.27;;;7.55;;
71166;SDS011;58864;45.928;20.078;2023-11-19T02:04:02;17.93;;;6.00;;
71166;SDS011;58864;45.928;20.078;2023-11-19T02:06:26;16.20;;;5.70;;
71166;SDS011;58864;45.928;20.078;2023-11-19T02:08:51;20.48;;;7.55;;
71166;SDS011;58864;45.928;20.078;2023-11-19T02:11:16;16.10;;;6.13;;
71166;SDS011;58864;45.928;20.078;2023-11-19T02:13:40;16.73;;;6.60;;
71166;SDS011;58864;45.928;20.078;2023-11-19T02:16:05;13.75;;;5.53;;
71166;SDS011;58864;45.928;20.078;2023-11-19T02:18:31;12.97;;;5.17;;
71166;SDS011;58864;45.928;20.078;2023-11-19T02:20:55;11.95;;;4.60;;
71166;SDS011;58864;45.928;20.078;2023-11-19T02:23:23;10.93;;;4.53;;
71166;SDS011;58864;45.928;20.078;2023-11-19T02:25:56;11.23;;;4.18;;
71166;SDS011;58864;45.928;20.078;2023-11-19T02:28:32;13.98;;;4.20;;
71166;SDS011;58864;45.928;20.078;2023-11-19T02:30:57;11.63;;;4.50;;
71166;SDS011;58864;45.928;20.078;2023-11-19T02:33:21;12.18;;;4.30;;
71166;SDS011;58864;45.928;20.078;2023-11-19T02:35:47;10.70;;;4.50;;
71166;SDS011;58864;45.928;20.078;2023-11-19T02:38:11;9.10;;;3.42;;
71166;SDS011;58864;45.928;20.078;2023-11-19T02:40:38;14.33;;;5.23;;
71166;SDS011;58864;45.928;20.078;2023-11-19T02:43:02;14.13;;;5.65;;
71166;SDS011;58864;45.928;20.078;2023-11-19T02:45:29;14.27;;;5.07;;
71166;SDS011;58864;45.928;20.078;2023-11-19T02:47:55;14.02;;;5.25;;
71166;SDS011;58864;45.928;20.078;2023-11-19T02:50:19;13.47;;;5.27;;
71166;SDS011;58864;45.928;20.078;2023-11-19T02:52:49;13.23;;;5.40;;
71166;SDS011;58864;45.928;20.078;2023-11-19T02:55:14;12.35;;;4.70;;
71166;SDS011;58864;45.928;20.078;2023-11-19T02:57:39;12.63;;;4.77;;
71166;SDS011;58864;45.928;20.078;2023-11-19T03:00:10;14.60;;;4.90;;
71166;SDS011;58864;45.928;20.078;2023-11-19T03:02:36;11.52;;;4.35;;
71166;SDS011;58864;45.928;20.078;2023-11-19T03:05:08;12.93;;;4.70;;
71166;SDS011;58864;45.928;20.078;2023-11-19T03:07:32;12.03;;;4.67;;
71166;SDS011;58864;45.928;20.078;2023-11-19T03:09:57;14.83;;;5.40;;
71166;SDS011;58864;45.928;20.078;2023-11-19T03:12:21;14.40;;;4.87;;
71166;SDS011;58864;45.928;20.078;2023-11-19T03:14:45;15.25;;;5.30;;
71166;SDS011;58864;45.928;20.078;2023-11-19T03:17:12;15.43;;;5.27;;
71166;SDS011;58864;45.928;20.078;2023-11-19T03:19:36;14.15;;;4.78;;
71166;SDS011;58864;45.928;20.078;2023-11-19T03:22:01;18.47;;;5.70;;
71166;SDS011;58864;45.928;20.078;2023-11-19T03:24:26;14.80;;;5.20;;
71166;SDS011;58864;45.928;20.078;2023-11-19T03:26:50;14.47;;;4.97;;
71166;SDS011;58864;45.928;20.078;2023-11-19T03:29:15;13.43;;;5.07;;
71166;SDS011;58864;45.928;20.078;2023-11-19T03:31:41;16.43;;;4.50;;
71166;SDS011;58864;45.928;20.078;2023-11-19T03:34:06;12.27;;;4.50;;
71166;SDS011;58864;45.928;20.078;2023-11-19T03:36:31;13.77;;;4.70;;
71166;SDS011;58864;45.928;20.078;2023-11-19T03:38:56;15.15;;;4.75;;
71166;SDS011;58864;45.928;20.078;2023-11-19T03:41:21;18.93;;;5.97;;
71166;SDS011;58864;45.928;20.078;2023-11-19T03:43:45;17.92;;;5.97;;
71166;SDS011;58864;45.928;20.078;2023-11-19T03:46:19;16.53;;;5.23;;
71166;SDS011;58864;45.928;20.078;2023-11-19T03:48:44;19.13;;;6.07;;
71166;SDS011;58864;45.928;20.078;2023-11-19T03:51:11;16.00;;;5.37;;
71166;SDS011;58864;45.928;20.078;2023-11-19T03:53:39;17.10;;;5.82;;
71166;SDS011;58864;45.928;20.078;2023-11-19T03:56:03;12.70;;;4.77;;
71166;SDS011;58864;45.928;20.078;2023-11-19T03:58:28;15.70;;;5.00;;
71166;SDS011;58864;45.928;20.078;2023-11-19T04:00:52;13.10;;;5.10;;
71166;SDS011;58864;45.928;20.078;2023-11-19T04:03:17;16.90;;;6.90;;
71166;SDS011;58864;45.928;20.078;2023-11-19T04:05:43;19.37;;;7.67;;
71166;SDS011;58864;45.928;20.078;2023-11-19T04:08:08;16.10;;;6.72;;
71166;SDS011;58864;45.928;20.078;2023-11-19T04:10:32;18.27;;;7.00;;
71166;SDS011;58864;45.928;20.078;2023-11-19T04:12:56;16.63;;;7.17;;
71166;SDS011;58864;45.928;20.078;2023-11-19T04:15:21;18.50;;;7.07;;
71166;SDS011;58864;45.928;20.078;2023-11-19T04:17:45;16.63;;;6.17;;
71166;SDS011;58864;45.928;20.078;2023-11-19T04:20:10;15.25;;;6.35;;
71166;SDS011;58864;45.928;20.078;2023-11-19T04:22:37;21.23;;;7.77;;
71166;SDS011;58864;45.928;20.078;2023-11-19T04:25:02;20.58;;;7.97;;
71166;SDS011;58864;45.928;20.078;2023-11-19T04:27:26;21.43;;;8.50;;
71166;SDS011;58864;45.928;20.078;2023-11-19T04:29:51;19.73;;;8.20;;
71166;SDS011;58864;45.928;20.078;2023-11-19T04:32:16;19.98;;;7.45;;
71166;SDS011;58864;45.928;20.078;2023-11-19T04:34:40;17.53;;;6.33;;
71166;SDS011;58864;45.928;20.078;2023-11-19T04:37:05;19.75;;;6.72;;
71166;SDS011;58864;45.928;20.078;2023-11-19T04:39:30;17.90;;;6.90;;
71166;SDS011;58864;45.928;20.078;2023-11-19T04:41:54;17.50;;;6.57;;
71166;SDS011;58864;45.928;20.078;2023-11-19T04:44:19;15.10;;;6.30;;
71166;SDS011;58864;45.928;20.078;2023-11-19T04:46:43;15.38;;;6.18;;
71166;SDS011;58864;45.928;20.078;2023-11-19T04:49:08;15.20;;;6.00;;
71166;SDS011;58864;45.928;20.078;2023-11-19T04:51:37;14.95;;;5.50;;
71166;SDS011;58864;45.928;20.078;2023-11-19T04:54:02;14.43;;;6.25;;
71166;SDS011;58864;45.928;20.078;2023-11-19T04:56:28;14.20;;;5.67;;
71166;SDS011;58864;45.928;20.078;2023-11-19T04:58:52;12.88;;;5.30;;
71166;SDS011;58864;45.928;20.078;2023-11-19T05:01:16;13.47;;;5.13;;
71166;SDS011;58864;45.928;20.078;2023-11-19T05:03:41;12.37;;;5.37;;
71166;SDS011;58864;45.928;20.078;2023-11-19T05:06:05;14.83;;;5.17;;
71166;SDS011;58864;45.928;20.078;2023-11-19T05:08:30;18.20;;;8.27;;
71166;SDS011;58864;45.928;20.078;2023-11-19T05:10:54;26.63;;;11.03;;
71166;SDS011;58864;45.928;20.078;2023-11-19T05:13:19;17.30;;;7.33;;
71166;SDS011;58864;45.928;20.078;2023-11-19T05:15:43;13.95;;;6.10;;
71166;SDS011;58864;45.928;20.078;2023-11-19T05:18:08;18.47;;;7.63;;
71166;SDS011;58864;45.928;20.078;2023-11-19T05:20:32;17.00;;;6.57;;
71166;SDS011;58864;45.928;20.078;2023-11-19T05:22:57;15.37;;;6.00;;
71166;SDS011;58864;45.928;20.078;2023-11-19T05:25:24;18.27;;;6.43;;
71166;SDS011;58864;45.928;20.078;2023-11-19T05:27:49;14.90;;;6.23;;
71166;SDS011;58864;45.928;20.078;2023-11-19T05:30:13;15.87;;;6.37;;
71166;SDS011;58864;45.928;20.078;2023-11-19T05:32:37;14.43;;;6.10;;
71166;SDS011;58864;45.928;20.078;2023-11-19T05:35:02;15.67;;;6.27;;
71166;SDS011;58864;45.928;20.078;2023-11-19T05:37:27;16.52;;;7.15;;
71166;SDS011;58864;45.928;20.078;2023-11-19T05:39:51;17.30;;;7.70;;
71166;SDS011;58864;45.928;20.078;2023-11-19T05:42:16;18.70;;;7.73;;
71166;SDS011;58864;45.928;20.078;2023-11-19T05:44:41;22.08;;;7.88;;
71166;SDS011;58864;45.928;20.078;2023-11-19T05:47:05;19.13;;;8.37;;
71166;SDS011;58864;45.928;20.078;2023-11-19T05:49:31;22.40;;;10.00;;
71166;SDS011;58864;45.928;20.078;2023-11-19T05:51:55;28.00;;;9.70;;
71166;SDS011;58864;45.928;20.078;2023-11-19T05:54:20;29.03;;;11.63;;
71166;SDS011;58864;45.928;20.078;2023-11-19T05:56:47;26.23;;;10.73;;
71166;SDS011;58864;45.928;20.078;2023-11-19T05:59:12;32.53;;;12.10;;
71166;SDS011;58864;45.928;20.078;2023-11-19T06:01:38;38.87;;;14.73;;
71166;SDS011;58864;45.928;20.078;2023-11-19T06:04:04;45.70;;;18.20;;
71166;SDS011;58864;45.928;20.078;2023-11-19T06:06:30;49.90;;;19.45;;
71166;SDS011;58864;45.928;20.078;2023-11-19T06:08:55;47.53;;;17.20;;
71166;SDS011;58864;45.928;20.078;2023-11-19T06:11:20;41.13;;;15.13;;
71166;SDS011;58864;45.928;20.078;2023-11-19T06:13:44;45.20;;;16.10;;
71166;SDS011;58864;45.928;20.078;2023-11-19T06:16:09;36.43;;;12.87;;
71166;SDS011;58864;45.928;20.078;2023-11-19T06:18:33;49.43;;;16.83;;
71166;SDS011;58864;45.928;20.078;2023-11-19T06:20:58;35.17;;;12.40;;
71166;SDS011;58864;45.928;20.078;2023-11-19T06:23:22;30.90;;;11.30;;
71166;SDS011;58864;45.928;20.078;2023-11-19T06:25:46;25.23;;;10.07;;
71166;SDS011;58864;45.928;20.078;2023-11-19T06:28:11;24.60;;;9.73;;
71166;SDS011;58864;45.928;20.078;2023-11-19T06:30:35;26.53;;;10.03;;
71166;SDS011;58864;45.928;20.078;2023-11-19T06:33:00;21.20;;;8.68;;
71166;SDS011;58864;45.928;20.078;2023-11-19T06:35:24;30.73;;;11.67;;
71166;SDS011;58864;45.928;20.078;2023-11-19T06:37:49;30.63;;;10.97;;
71166;SDS011;58864;45.928;20.078;2023-11-19T06:40:13;29.60;;;10.98;;
71166;SDS011;58864;45.928;20.078;2023-11-19T06:42:39;28.30;;;11.03;;
71166;SDS011;58864;45.928;20.078;2023-11-19T06:45:04;27.42;;;13.00;;
71166;SDS011;58864;45.928;20.078;2023-11-19T06:47:30;29.07;;;11.97;;
71166;SDS011;58864;45.928;20.078;2023-11-19T06:49:54;28.63;;;12.23;;
71166;SDS011;58864;45.928;20.078;2023-11-19T06:52:19;26.07;;;11.50;;
71166;SDS011;58864;45.928;20.078;2023-11-19T06:54:43;30.27;;;12.43;;
71166;SDS011;58864;45.928;20.078;2023-11-19T06:57:09;36.83;;;14.97;;
71166;SDS011;58864;45.928;20.078;2023-11-19T06:59:33;38.50;;;16.63;;
71166;SDS011;58864;45.928;20.078;2023-11-19T07:01:58;35.70;;;14.73;;
71166;SDS011;58864;45.928;20.078;2023-11-19T07:04:23;34.65;;;14.68;;
71166;SDS011;58864;45.928;20.078;2023-11-19T07:06:47;37.87;;;16.40;;
71166;SDS011;58864;45.928;20.078;2023-11-19T07:09:16;35.50;;;15.60;;
71166;SDS011;58864;45.928;20.078;2023-11-19T07:11:41;38.47;;;15.83;;
71166;SDS011;58864;45.928;20.078;2023-11-19T07:14:06;54.45;;;22.58;;
71166;SDS011;58864;45.928;20.078;2023-11-19T07:16:31;54.40;;;22.03;;
71166;SDS011;58864;45.928;20.078;2023-11-19T07:18:55;60.97;;;25.23;;
71166;SDS011;58864;45.928;20.078;2023-11-19T07:21:20;56.63;;;23.83;;
71166;SDS011;58864;45.928;20.078;2023-11-19T07:23:44;54.70;;;23.20;;
71166;SDS011;58864;45.928;20.078;2023-11-19T07:26:08;50.10;;;22.27;;
71166;SDS011;58864;45.928;20.078;2023-11-19T07:28:33;55.10;;;21.70;;
71166;SDS011;58864;45.928;20.078;2023-11-19T07:30:57;64.23;;;23.07;;
71166;SDS011;58864;45.928;20.078;2023-11-19T07:33:22;62.83;;;23.00;;
71166;SDS011;58864;45.928;20.078;2023-11-19T07:35:46;60.60;;;22.93;;
71166;SDS011;58864;45.928;20.078;2023-11-19T07:38:11;68.90;;;28.90;;
71166;SDS011;58864;45.928;20.078;2023-11-19T07:40:35;55.00;;;21.97;;
71166;SDS011;58864;45.928;20.078;2023-11-19T07:42:59;55.93;;;22.30;;
71166;SDS011;58864;45.928;20.078;2023-11-19T07:45:24;54.60;;;19.80;;
71166;SDS011;58864;45.928;20.078;2023-11-19T07:47:48;47.03;;;19.77;;
71166;SDS011;58864;45.928;20.078;2023-11-19T07:50:15;47.20;;;18.20;;
71166;SDS011;58864;45.928;20.078;2023-11-19T07:52:40;41.10;;;17.23;;
71166;SDS011;58864;45.928;20.078;2023-11-19T07:55:05;47.38;;;18.52;;
71166;SDS011;58864;45.928;20.078;2023-11-19T07:57:30;56.92;;;18.85;;
71166;SDS011;58864;45.928;20.078;2023-11-19T07:59:55;82.53;;;30.10;;
71166;SDS011;58864;45.928;20.078;2023-11-19T08:02:19;106.50;;;39.13;;
71166;SDS011;58864;45.928;20.078;2023-11-19T08:04:44;104.83;;;40.30;;
71166;SDS011;58864;45.928;20.078;2023-11-19T08:07:10;67.03;;;27.70;;
71166;SDS011;58864;45.928;20.078;2023-11-19T08:09:35;54.20;;;23.70;;
71166;SDS011;58864;45.928;20.078;2023-11-19T08:11:59;58.73;;;21.33;;
71166;SDS011;58864;45.928;20.078;2023-11-19T08:14:23;46.73;;;18.07;;
71166;SDS011;58864;45.928;20.078;2023-11-19T08:16:48;35.73;;;14.17;;
71166;SDS011;58864;45.928;20.078;2023-11-19T08:19:12;31.73;;;12.50;;
71166;SDS011;58864;45.928;20.078;2023-11-19T08:21:37;27.73;;;10.93;;
71166;SDS011;58864;45.928;20.078;2023-11-19T08:24:01;22.97;;;10.80;;
71166;SDS011;58864;45.928;20.078;2023-11-19T08:26:26;22.17;;;9.20;;
71166;SDS011;58864;45.928;20.078;2023-11-19T08:28:50;21.13;;;8.75;;
71166;SDS011;58864;45.928;20.078;2023-11-19T08:31:16;17.33;;;8.30;;
71166;SDS011;58864;45.928;20.078;2023-11-19T08:33:40;23.40;;;9.75;;
71166;SDS011;58864;45.928;20.078;2023-11-19T08:36:05;29.63;;;10.27;;
71166;SDS011;58864;45.928;20.078;2023-11-19T08:38:30;25.38;;;9.57;;
71166;SDS011;58864;45.928;20.078;2023-11-19T08:40:55;25.43;;;8.67;;
71166;SDS011;58864;45.928;20.078;2023-11-19T08:43:23;28.42;;;11.98;;
71166;SDS011;58864;45.928;20.078;2023-11-19T08:45:48;28.23;;;10.67;;
71166;SDS011;58864;45.928;20.078;2023-11-19T08:48:12;24.27;;;9.83;;
71166;SDS011;58864;45.928;20.078;2023-11-19T08:50:37;23.85;;;10.10;;
71166;SDS011;58864;45.928;20.078;2023-11-19T08:53:01;21.07;;;8.57;;
71166;SDS011;58864;45.928;20.078;2023-11-19T08:55:25;20.47;;;8.80;;
71166;SDS011;58864;45.928;20.078;2023-11-19T08:57:50;21.98;;;9.23;;
71166;SDS011;58864;45.928;20.078;2023-11-19T09:00:14;22.73;;;9.40;;
71166;SDS011;58864;45.928;20.078;2023-11-19T09:02:39;23.37;;;8.20;;
71166;SDS011;58864;45.928;20.078;2023-11-19T09:05:07;21.13;;;8.98;;
71166;SDS011;58864;45.928;20.078;2023-11-19T09:07:32;22.17;;;9.60;;
71166;SDS011;58864;45.928;20.078;2023-11-19T09:09:56;19.40;;;8.05;;
71166;SDS011;58864;45.928;20.078;2023-11-19T09:12:21;18.93;;;8.77;;
71166;SDS011;58864;45.928;20.078;2023-11-19T09:14:45;23.95;;;10.27;;
71166;SDS011;58864;45.928;20.078;2023-11-19T09:17:10;34.37;;;13.83;;
71166;SDS011;58864;45.928;20.078;2023-11-19T09:19:34;34.47;;;12.90;;
71166;SDS011;58864;45.928;20.078;2023-11-19T09:22:00;40.40;;;14.20;;
71166;SDS011;58864;45.928;20.078;2023-11-19T09:24:24;32.57;;;13.20;;
71166;SDS011;58864;45.928;20.078;2023-11-19T09:26:48;20.17;;;8.20;;
71166;SDS011;58864;45.928;20.078;2023-11-19T09:29:13;30.45;;;13.07;;
71166;SDS011;58864;45.928;20.078;2023-11-19T09:31:38;21.67;;;8.77;;
71166;SDS011;58864;45.928;20.078;2023-11-19T09:34:03;23.13;;;8.55;;
71166;SDS011;58864;45.928;20.078;2023-11-19T09:36:27;23.80;;;9.13;;
71166;SDS011;58864;45.928;20.078;2023-11-19T09:38:51;21.67;;;9.37;;
71166;SDS011;58864;45.928;20.078;2023-11-19T09:41:16;24.15;;;10.00;;
71166;SDS011;58864;45.928;20.078;2023-11-19T09:43:43;18.23;;;8.43;;
71166;SDS011;58864;45.928;20.078;2023-11-19T09:46:12;18.38;;;8.32;;
71166;SDS011;58864;45.928;20.078;2023-11-19T09:48:37;21.85;;;9.93;;
71166;SDS011;58864;45.928;20.078;2023-11-19T09:51:09;22.58;;;8.43;;
71166;SDS011;58864;45.928;20.078;2023-11-19T09:53:36;17.92;;;8.27;;
71166;SDS011;58864;45.928;20.078;2023-11-19T09:56:02;18.47;;;7.63;;
71166;SDS011;58864;45.928;20.078;2023-11-19T09:58:27;16.05;;;7.00;;
71166;SDS011;58864;45.928;20.078;2023-11-19T10:00:51;19.37;;;8.37;;
71166;SDS011;58864;45.928;20.078;2023-11-19T10:03:16;17.63;;;7.95;;
71166;SDS011;58864;45.928;20.078;2023-11-19T10:05:40;16.73;;;6.93;;
71166;SDS011;58864;45.928;20.078;2023-11-19T10:08:05;17.80;;;7.97;;
71166;SDS011;58864;45.928;20.078;2023-11-19T10:10:30;18.67;;;7.47;;
71166;SDS011;58864;45.928;20.078;2023-11-19T10:12:54;16.43;;;7.43;;
71166;SDS011;58864;45.928;20.078;2023-11-19T10:15:22;19.02;;;8.18;;
71166;SDS011;58864;45.928;20.078;2023-11-19T10:17:51;17.77;;;7.93;;
71166;SDS011;58864;45.928;20.078;2023-11-19T10:20:25;24.80;;;10.50;;
71166;SDS011;58864;45.928;20.078;2023-11-19T10:22:55;24.25;;;10.20;;
71166;SDS011;58864;45.928;20.078;2023-11-19T10:25:24;18.83;;;8.57;;
71166;SDS011;58864;45.928;20.078;2023-11-19T10:27:50;21.77;;;9.03;;
71166;SDS011;58864;45.928;20.078;2023-11-19T10:30:22;22.02;;;9.40;;
71166;SDS011;58864;45.928;20.078;2023-11-19T10:33:02;23.13;;;9.50;;
71166;SDS011;58864;45.928;20.078;2023-11-19T10:35:26;21.75;;;9.70;;
71166;SDS011;58864;45.928;20.078;2023-11-19T10:37:51;18.83;;;8.90;;
71166;SDS011;58864;45.928;20.078;2023-11-19T10:40:15;19.93;;;9.10;;
71166;SDS011;58864;45.928;20.078;2023-11-19T10:42:41;21.10;;;9.98;;
71166;SDS011;58864;45.928;20.078;2023-11-19T10:45:07;19.25;;;8.32;;
71166;SDS011;58864;45.928;20.078;2023-11-19T10:47:46;19.03;;;8.63;;
71166;SDS011;58864;45.928;20.078;2023-11-19T10:50:10;19.35;;;7.80;;
71166;SDS011;58864;45.928;20.078;2023-11-19T10:52:35;16.47;;;7.30;;
71166;SDS011;58864;45.928;20.078;2023-11-19T10:55:00;14.67;;;6.77;;
71166;SDS011;58864;45.928;20.078;2023-11-19T10:57:25;16.60;;;6.22;;
71166;SDS011;58864;45.928;20.078;2023-11-19T10:59:52;17.42;;;7.43;;
71166;SDS011;58864;45.928;20.078;2023-11-19T11:02:19;29.90;;;14.57;;
71166;SDS011;58864;45.928;20.078;2023-11-19T11:04:46;22.65;;;10.73;;
71166;SDS011;58864;45.928;20.078;2023-11-19T11:07:11;27.13;;;10.25;;
71166;SDS011;58864;45.928;20.078;2023-11-19T11:09:37;18.42;;;7.32;;
71166;SDS011;58864;45.928;20.078;2023-11-19T11:12:02;14.82;;;6.10;;
71166;SDS011;58864;45.928;20.078;2023-11-19T11:14:28;16.33;;;6.90;;
71166;SDS011;58864;45.928;20.078;2023-11-19T11:16:53;15.52;;;6.47;;
71166;SDS011;58864;45.928;20.078;2023-11-19T11:19:17;13.43;;;6.47;;
71166;SDS011;58864;45.928;20.078;2023-11-19T11:21:43;16.43;;;7.83;;
71166;SDS011;58864;45.928;20.078;2023-11-19T11:29:47;17.05;;;6.30;;
71166;SDS011;58864;45.928;20.078;2023-11-19T11:32:37;15.23;;;6.57;;
71166;SDS011;58864;45.928;20.078;2023-11-19T11:38:09;16.23;;;6.22;;
71166;SDS011;58864;45.928;20.078;2023-11-19T11:40:33;14.15;;;6.70;;
71166;SDS011;58864;45.928;20.078;2023-11-19T11:42:58;14.47;;;5.93;;
71166;SDS011;58864;45.928;20.078;2023-11-19T11:48:28;21.60;;;9.90;;
71166;SDS011;58864;45.928;20.078;2023-11-19T11:50:58;20.38;;;9.50;;
71166;SDS011;58864;45.928;20.078;2023-11-19T11:53:24;17.42;;;7.55;;
71166;SDS011;58864;45.928;20.078;2023-11-19T11:58:17;22.05;;;10.50;;
71166;SDS011;58864;45.928;20.078;2023-11-19T12:00:51;16.07;;;8.00;;
71166;SDS011;58864;45.928;20.078;2023-11-19T12:03:16;16.80;;;6.70;;
71166;SDS011;58864;45.928;20.078;2023-11-19T12:05:45;19.50;;;8.88;;
71166;SDS011;58864;45.928;20.078;2023-11-19T12:08:10;17.53;;;8.30;;
71166;SDS011;58864;45.928;20.078;2023-11-19T12:10:36;18.77;;;7.80;;
71166;SDS011;58864;45.928;20.078;2023-11-19T12:13:08;20.98;;;9.13;;
71166;SDS011;58864;45.928;20.078;2023-11-19T12:15:33;23.30;;;9.23;;
71166;SDS011;58864;45.928;20.078;2023-11-19T12:18:20;38.38;;;10.90;;
71166;SDS011;58864;45.928;20.078;2023-11-19T12:20:45;58.65;;;17.58;;
71166;SDS011;58864;45.928;20.078;2023-11-19T12:23:09;58.37;;;17.67;;
71166;SDS011;58864;45.928;20.078;2023-11-19T12:25:34;65.07;;;20.20;;
71166;SDS011;58864;45.928;20.078;2023-11-19T12:28:00;84.30;;;28.25;;
71166;SDS011;58864;45.928;20.078;2023-11-19T12:30:28;48.40;;;15.77;;
71166;SDS011;58864;45.928;20.078;2023-11-19T12:32:53;33.90;;;12.65;;
71166;SDS011;58864;45.928;20.078;2023-11-19T12:35:18;32.17;;;12.30;;
71166;SDS011;58864;45.928;20.078;2023-11-19T12:37:44;27.13;;;11.55;;
71166;SDS011;58864;45.928;20.078;2023-11-19T12:40:19;23.90;;;10.60;;
71166;SDS011;58864;45.928;20.078;2023-11-19T12:42:45;19.63;;;9.27;;
71166;SDS011;58864;45.928;20.078;2023-11-19T12:45:12;23.30;;;9.80;;
71166;SDS011;58864;45.928;20.078;2023-11-19T12:47:38;19.60;;;8.43;;
71166;SDS011;58864;45.928;20.078;2023-11-19T12:50:05;29.55;;;11.98;;
71166;SDS011;58864;45.928;20.078;2023-11-19T12:52:31;23.70;;;10.38;;
71166;SDS011;58864;45.928;20.078;2023-11-19T12:54:56;26.00;;;10.47;;
71166;SDS011;58864;45.928;20.078;2023-11-19T12:57:35;23.67;;;10.13;;
71166;SDS011;58864;45.928;20.078;2023-11-19T13:00:17;22.20;;;9.40;;
71166;SDS011;58864;45.928;20.078;2023-11-19T13:02:49;24.23;;;10.88;;
71166;SDS011;58864;45.928;20.078;2023-11-19T13:05:22;30.45;;;12.07;;
71166;SDS011;58864;45.928;20.078;2023-11-19T13:07:46;23.57;;;9.17;;
71166;SDS011;58864;45.928;20.078;2023-11-19T13:10:11;21.25;;;8.52;;
71166;SDS011;58864;45.928;20.078;2023-11-19T13:12:36;30.97;;;11.07;;
71166;SDS011;58864;45.928;20.078;2023-11-19T13:15:00;29.88;;;13.55;;
71166;SDS011;58864;45.928;20.078;2023-11-19T13:17:24;29.07;;;12.40;;
71166;SDS011;58864;45.928;20.078;2023-11-19T13:19:49;20.60;;;9.40;;
71166;SDS011;58864;45.928;20.078;2023-11-19T13:22:14;21.37;;;9.10;;
71166;SDS011;58864;45.928;20.078;2023-11-19T13:24:39;19.38;;;8.30;;
71166;SDS011;58864;45.928;20.078;2023-11-19T13:27:04;16.87;;;7.93;;
71166;SDS011;58864;45.928;20.078;2023-11-19T13:29:28;25.77;;;9.93;;
71166;SDS011;58864;45.928;20.078;2023-11-19T13:31:53;21.77;;;9.37;;
71166;SDS011;58864;45.928;20.078;2023-11-19T13:34:17;24.77;;;11.33;;
71166;SDS011;58864;45.928;20.078;2023-11-19T13:36:42;23.30;;;9.43;;
71166;SDS011;58864;45.928;20.078;2023-11-19T13:39:06;18.50;;;8.83;;
71166;SDS011;58864;45.928;20.078;2023-11-19T13:41:31;17.47;;;7.77;;
71166;SDS011;58864;45.928;20.078;2023-11-19T13:43:55;18.50;;;8.13;;
71166;SDS011;58864;45.928;20.078;2023-11-19T13:46:20;17.60;;;8.27;;
71166;SDS011;58864;45.928;20.078;2023-11-19T13:48:44;18.07;;;8.03;;
71166;SDS011;58864;45.928;20.078;2023-11-19T13:51:09;16.30;;;7.15;;
71166;SDS011;58864;45.928;20.078;2023-11-19T13:53:34;14.40;;;5.90;;
71166;SDS011;58864;45.928;20.078;2023-11-19T13:55:58;18.30;;;6.93;;
71166;SDS011;58864;45.928;20.078;2023-11-19T13:58:23;25.87;;;10.33;;
71166;SDS011;58864;45.928;20.078;2023-11-19T14:00:47;28.13;;;10.57;;
71166;SDS011;58864;45.928;20.078;2023-11-19T14:03:12;21.00;;;9.55;;
71166;SDS011;58864;45.928;20.078;2023-11-19T14:05:37;24.30;;;9.67;;
71166;SDS011;58864;45.928;20.078;2023-11-19T14:08:02;21.30;;;8.40;;
71166;SDS011;58864;45.928;20.078;2023-11-19T14:10:26;19.17;;;7.77;;
71166;SDS011;58864;45.928;20.078;2023-11-19T14:12:51;15.98;;;6.80;;
71166;SDS011;58864;45.928;20.078;2023-11-19T14:15:15;16.70;;;7.37;;
71166;SDS011;58864;45.928;20.078;2023-11-19T14:17:43;19.52;;;7.85;;
71166;SDS011;58864;45.928;20.078;2023-11-19T14:20:08;31.40;;;13.97;;
71166;SDS011;58864;45.928;20.078;2023-11-19T14:22:36;29.70;;;11.95;;